sensor_id;sensor_type;location;lat;lon;timestamp;pressure;altitude;pressure_sealevel;temperature;humidity
73633;BME280;61927;50.080;14.418;2023-05-22T00:00:17;99390.44;;;17.73;64.92
73633;BME280;61927;50.080;14.418;2023-05-22T00:03:03;99395.66;;;17.74;64.87
73633;BME280;61927;50.080;14.418;2023-05-22T00:05:30;99396.94;;;17.80;64.71
73633;BME280;61927;50.080;14.418;2023-05-22T00:07:56;99393.25;;;17.81;64.84
73633;BME280;61927;50.080;14.418;2023-05-22T00:10:22;99389.03;;;17.79;64.75
73633;BME280;61927;50.080;14.418;2023-05-22T00:12:47;99398.06;;;17.78;64.64
73633;BME280;61927;50.080;14.418;2023-05-22T00:15:13;99396.66;;;17.73;64.98
73633;BME280;61927;50.080;14.418;2023-05-22T00:17:39;99396.25;;;17.68;64.79
73633;BME280;61927;50.080;14.418;2023-05-22T00:20:05;99391.13;;;17.65;65.11
73633;BME280;61927;50.080;14.418;2023-05-22T00:22:32;99394.09;;;17.62;65.35
73633;BME280;61927;50.080;14.418;2023-05-22T00:25:04;99401.56;;;17.59;65.25
73633;BME280;61927;50.080;14.418;2023-05-22T00:27:31;99392.09;;;17.55;65.28
73633;BME280;61927;50.080;14.418;2023-05-22T00:29:57;99393.22;;;17.52;65.23
73633;BME280;61927;50.080;14.418;2023-05-22T00:32:24;99394.34;;;17.50;65.61
73633;BME280;61927;50.080;14.418;2023-05-22T00:34:50;99392.81;;;17.47;65.73
73633;BME280;61927;50.080;14.418;2023-05-22T00:37:17;99391.97;;;17.47;65.53
73633;BME280;61927;50.080;14.418;2023-05-22T00:39:44;99397.31;;;17.47;65.47
73633;BME280;61927;50.080;14.418;2023-05-22T00:42:10;99392.09;;;17.45;65.57
73633;BME280;61927;50.080;14.418;2023-05-22T00:44:36;99395.91;;;17.42;65.51
73633;BME280;61927;50.080;14.418;2023-05-22T00:47:02;99398.88;;;17.39;65.73
73633;BME280;61927;50.080;14.418;2023-05-22T00:49:28;99399.00;;;17.38;65.40
73633;BME280;61927;50.080;14.418;2023-05-22T00:51:53;99393.78;;;17.36;65.76
73633;BME280;61927;50.080;14.418;2023-05-22T00:54:19;99394.91;;;17.34;65.96
73633;BME280;61927;50.080;14.418;2023-05-22T00:56:46;99398.56;;;17.33;65.87
73633;BME280;61927;50.080;14.418;2023-05-22T00:59:12;99393.34;;;17.31;66.01
73633;BME280;61927;50.080;14.418;2023-05-22T01:01:37;99387.28;;;17.29;65.78
73633;BME280;61927;50.080;14.418;2023-05-22T01:04:09;99383.75;;;17.29;65.69
73633;BME280;61927;50.080;14.418;2023-05-22T01:06:35;99387.28;;;17.29;65.86
73633;BME280;61927;50.080;14.418;2023-05-22T01:09:01;99389.25;;;17.27;65.80
73633;BME280;61927;50.080;14.418;2023-05-22T01:11:31;99391.22;;;17.25;65.82
73633;BME280;61927;50.080;14.418;2023-05-22T01:14:40;99391.38;;;17.24;65.86
73633;BME280;61927;50.080;14.418;2023-05-22T01:17:31;99385.16;;;17.23;65.66
73633;BME280;61927;50.080;14.418;2023-05-22T01:20:07;99386.00;;;17.24;65.68
73633;BME280;61927;50.080;14.418;2023-05-22T01:30:49;99400.50;;;17.11;66.08
73633;BME280;61927;50.080;14.418;2023-05-22T01:33:20;99393.72;;;17.07;66.09
73633;BME280;61927;50.080;14.418;2023-05-22T01:35:51;99390.34;;;17.05;66.37
73633;BME280;61927;50.080;14.418;2023-05-22T01:38:18;99393.16;;;17.04;66.38
73633;BME280;61927;50.080;14.418;2023-05-22T01:40:44;99394.97;;;17.03;66.41
73633;BME280;61927;50.080;14.418;2023-05-22T01:43:12;99397.81;;;17.02;66.43
73633;BME280;61927;50.080;14.418;2023-05-22T01:45:38;99395.13;;;17.02;66.57
73633;BME280;61927;50.080;14.418;2023-05-22T01:48:03;99394.28;;;17.01;66.58
73633;BME280;61927;50.080;14.418;2023-05-22T01:50:29;99401.34;;;17.02;66.25
73633;BME280;61927;50.080;14.418;2023-05-22T01:53:11;99398.66;;;17.02;66.48
73633;BME280;61927;50.080;14.418;2023-05-22T01:56:18;99393.69;;;16.98;66.44
73633;BME280;61927;50.080;14.418;2023-05-22T01:58:52;99398.47;;;16.94;66.38
73633;BME280;61927;50.080;14.418;2023-05-22T02:01:21;99396.94;;;16.92;66.67
73633;BME280;61927;50.080;14.418;2023-05-22T02:03:53;99403.41;;;16.89;66.64
73633;BME280;61927;50.080;14.418;2023-05-22T02:06:21;99397.34;;;16.87;66.67
73633;BME280;61927;50.080;14.418;2023-05-22T02:08:47;99403.69;;;16.86;66.81
73633;BME280;61927;50.080;14.418;2023-05-22T02:11:15;99394.06;;;16.84;66.59
73633;BME280;61927;50.080;14.418;2023-05-22T02:13:41;99396.03;;;16.82;67.05
73633;BME280;61927;50.080;14.418;2023-05-22T02:16:08;99396.19;;;16.80;67.08
73633;BME280;61927;50.080;14.418;2023-05-22T02:18:34;99395.34;;;16.79;67.02
73633;BME280;61927;50.080;14.418;2023-05-22T02:21:00;99393.50;;;16.80;67.09
73633;BME280;61927;50.080;14.418;2023-05-22T02:23:26;99387.16;;;16.81;67.13
73633;BME280;61927;50.080;14.418;2023-05-22T02:25:55;99376.84;;;16.76;67.33
73633;BME280;61927;50.080;14.418;2023-05-22T02:28:21;99376.28;;;16.73;67.48
73633;BME280;61927;50.080;14.418;2023-05-22T02:30:47;99378.22;;;16.71;67.83
73633;BME280;61927;50.080;14.418;2023-05-22T02:33:12;99382.34;;;16.75;67.65
73633;BME280;61927;50.080;14.418;2023-05-22T02:35:39;99379.22;;;16.70;67.68
73633;BME280;61927;50.080;14.418;2023-05-22T02:38:04;99376.09;;;16.65;67.80
73633;BME280;61927;50.080;14.418;2023-05-22T02:40:31;99384.50;;;16.60;68.33
73633;BME280;61927;50.080;14.418;2023-05-22T02:42:56;99381.38;;;16.55;68.87
73633;BME280;61927;50.080;14.418;2023-05-22T02:45:22;99382.75;;;16.50;68.87
73633;BME280;61927;50.080;14.418;2023-05-22T02:47:47;99377.09;;;16.43;69.26
73633;BME280;61927;50.080;14.418;2023-05-22T02:50:13;99383.56;;;16.40;69.00
73633;BME280;61927;50.080;14.418;2023-05-22T02:52:39;99378.34;;;16.39;69.37
73633;BME280;61927;50.080;14.418;2023-05-22T02:55:05;99378.34;;;16.39;69.03
73633;BME280;61927;50.080;14.418;2023-05-22T02:57:31;99386.97;;;16.42;68.86
73633;BME280;61927;50.080;14.418;2023-05-22T02:59:57;99382.72;;;16.40;68.92
73633;BME280;61927;50.080;14.418;2023-05-22T03:02:26;99379.59;;;16.35;68.93
73633;BME280;61927;50.080;14.418;2023-05-22T03:04:57;99379.72;;;16.33;69.16
73633;BME280;61927;50.080;14.418;2023-05-22T03:07:24;99377.50;;;16.38;69.08
73633;BME280;61927;50.080;14.418;2023-05-22T03:09:51;99377.31;;;16.30;69.32
73633;BME280;61927;50.080;14.418;2023-05-22T03:12:17;99381.44;;;16.13;69.70
73633;BME280;61927;50.080;14.418;2023-05-22T03:14:43;99384.66;;;16.07;69.77
73633;BME280;61927;50.080;14.418;2023-05-22T03:17:08;99386.88;;;16.02;70.09
73633;BME280;61927;50.080;14.418;2023-05-22T03:19:34;99384.19;;;16.02;70.17
73633;BME280;61927;50.080;14.418;2023-05-22T03:22:00;99378.31;;;16.08;69.65
73633;BME280;61927;50.080;14.418;2023-05-22T03:24:26;99377.84;;;16.03;69.88
73633;BME280;61927;50.080;14.418;2023-05-22T03:26:52;99389.53;;;16.02;70.16
73633;BME280;61927;50.080;14.418;2023-05-22T03:29:17;99377.13;;;16.01;70.15
73633;BME280;61927;50.080;14.418;2023-05-22T03:31:43;99387.13;;;15.99;70.31
73633;BME280;61927;50.080;14.418;2023-05-22T03:34:08;99389.94;;;15.98;70.18
73633;BME280;61927;50.080;14.418;2023-05-22T03:36:34;99388.97;;;15.99;70.38
73633;BME280;61927;50.080;14.418;2023-05-22T03:39:01;99381.25;;;16.05;69.73
73633;BME280;61927;50.080;14.418;2023-05-22T03:41:27;99379.16;;;16.09;69.38
73633;BME280;61927;50.080;14.418;2023-05-22T03:43:53;99379.75;;;16.12;69.35
73633;BME280;61927;50.080;14.418;2023-05-22T03:46:18;99385.38;;;16.09;69.29
73633;BME280;61927;50.080;14.418;2023-05-22T03:48:44;99384.78;;;16.06;69.45
73633;BME280;61927;50.080;14.418;2023-05-22T03:51:10;99384.78;;;16.06;69.52
73633;BME280;61927;50.080;14.418;2023-05-22T03:53:35;99374.06;;;16.06;69.49
73633;BME280;61927;50.080;14.418;2023-05-22T03:56:01;99377.19;;;16.11;69.14
73633;BME280;61927;50.080;14.418;2023-05-22T03:58:27;99376.09;;;16.13;69.10
73633;BME280;61927;50.080;14.418;2023-05-22T04:00:53;99383.13;;;16.14;69.09
73633;BME280;61927;50.080;14.418;2023-05-22T04:03:20;99378.63;;;16.15;68.92
73633;BME280;61927;50.080;14.418;2023-05-22T04:05:46;99376.09;;;16.13;69.26
73633;BME280;61927;50.080;14.418;2023-05-22T04:08:12;99373.69;;;16.10;69.23
73633;BME280;61927;50.080;14.418;2023-05-22T04:10:37;99376.63;;;16.07;69.21
73633;BME280;61927;50.080;14.418;2023-05-22T04:13:05;99369.56;;;16.06;69.34
73633;BME280;61927;50.080;14.418;2023-05-22T04:15:30;99368.59;;;16.07;69.43
73633;BME280;61927;50.080;14.418;2023-05-22T04:17:59;99367.22;;;16.13;69.08
73633;BME280;61927;50.080;14.418;2023-05-22T04:20:25;99367.09;;;16.14;69.20
73633;BME280;61927;50.080;14.418;2023-05-22T04:22:51;99357.22;;;16.15;69.10
73633;BME280;61927;50.080;14.418;2023-05-22T04:25:19;99371.19;;;16.19;68.96
73633;BME280;61927;50.080;14.418;2023-05-22T04:27:45;99367.78;;;16.17;68.77
73633;BME280;61927;50.080;14.418;2023-05-22T04:30:12;99374.41;;;16.12;69.05
73633;BME280;61927;50.080;14.418;2023-05-22T04:32:39;99364.13;;;16.18;68.80
73633;BME280;61927;50.080;14.418;2023-05-22T04:35:05;99364.59;;;16.23;68.49
73633;BME280;61927;50.080;14.418;2023-05-22T04:37:31;99362.88;;;16.22;68.36
73633;BME280;61927;50.080;14.418;2023-05-22T04:39:57;99362.50;;;16.26;68.58
73633;BME280;61927;50.080;14.418;2023-05-22T04:42:31;99369.69;;;16.26;68.39
73633;BME280;61927;50.080;14.418;2023-05-22T04:44:59;99361.06;;;16.22;68.58
73633;BME280;61927;50.080;14.418;2023-05-22T04:47:25;99367.78;;;16.17;68.76
73633;BME280;61927;50.080;14.418;2023-05-22T04:49:53;99364.28;;;16.16;69.28
73633;BME280;61927;50.080;14.418;2023-05-22T04:52:21;99364.00;;;16.19;68.80
73633;BME280;61927;50.080;14.418;2023-05-22T04:54:46;99367.25;;;16.23;68.57
73633;BME280;61927;50.080;14.418;2023-05-22T04:57:14;99367.97;;;16.25;68.74
73633;BME280;61927;50.080;14.418;2023-05-22T04:59:41;99361.13;;;16.32;68.46
73633;BME280;61927;50.080;14.418;2023-05-22T05:02:07;99365.41;;;16.44;68.10
73633;BME280;61927;50.080;14.418;2023-05-22T05:04:32;99363.44;;;16.46;67.98
73633;BME280;61927;50.080;14.418;2023-05-22T05:06:58;99368.97;;;16.54;67.50
73633;BME280;61927;50.080;14.418;2023-05-22T05:09:24;99360.41;;;16.60;67.17
73633;BME280;61927;50.080;14.418;2023-05-22T05:11:51;99355.50;;;16.65;66.64
73633;BME280;61927;50.080;14.418;2023-05-22T05:14:16;99359.13;;;16.64;66.83
73633;BME280;61927;50.080;14.418;2023-05-22T05:16:42;99353.69;;;16.66;66.78
73633;BME280;61927;50.080;14.418;2023-05-22T05:19:08;99356.09;;;16.69;66.61
73633;BME280;61927;50.080;14.418;2023-05-22T05:21:34;99354.13;;;16.71;66.11
73633;BME280;61927;50.080;14.418;2023-05-22T05:24:00;99348.34;;;16.75;66.36
73633;BME280;61927;50.080;14.418;2023-05-22T05:26:26;99347.81;;;16.82;65.64
73633;BME280;61927;50.080;14.418;2023-05-22T05:28:52;99338.22;;;16.89;65.46
73633;BME280;61927;50.080;14.418;2023-05-22T05:31:18;99351.22;;;16.93;65.49
73633;BME280;61927;50.080;14.418;2023-05-22T05:33:45;99351.78;;;16.97;65.35
73633;BME280;61927;50.080;14.418;2023-05-22T05:36:11;99345.44;;;16.98;65.38
73633;BME280;61927;50.080;14.418;2023-05-22T05:38:36;99350.53;;;17.01;64.58
73633;BME280;61927;50.080;14.418;2023-05-22T05:41:02;99349.97;;;17.07;64.85
73633;BME280;61927;50.080;14.418;2023-05-22T05:43:28;99345.91;;;17.13;64.40
73633;BME280;61927;50.080;14.418;2023-05-22T05:45:54;99344.78;;;17.15;64.36
73633;BME280;61927;50.080;14.418;2023-05-22T05:48:19;99341.97;;;17.17;64.04
73633;BME280;61927;50.080;14.418;2023-05-22T05:50:45;99344.94;;;17.23;63.65
73633;BME280;61927;50.080;14.418;2023-05-22T05:53:11;99341.81;;;17.28;63.80
73633;BME280;61927;50.080;14.418;2023-05-22T05:55:37;99341.84;;;17.37;63.74
73633;BME280;61927;50.080;14.418;2023-05-22T05:58:02;99338.59;;;17.43;63.24
73633;BME280;61927;50.080;14.418;2023-05-22T06:00:28;99341.84;;;17.47;63.21
73633;BME280;61927;50.080;14.418;2023-05-22T06:02:54;99340.56;;;17.51;62.69
73633;BME280;61927;50.080;14.418;2023-05-22T06:05:21;99337.75;;;17.53;62.63
73633;BME280;61927;50.080;14.418;2023-05-22T06:07:47;99327.84;;;17.63;62.14
73633;BME280;61927;50.080;14.418;2023-05-22T06:10:13;99333.66;;;17.68;61.87
73633;BME280;61927;50.080;14.418;2023-05-22T06:12:40;99339.31;;;17.74;61.75
73633;BME280;61927;50.080;14.418;2023-05-22T06:15:06;99329.84;;;17.80;61.72
73633;BME280;61927;50.080;14.418;2023-05-22T06:17:33;99327.56;;;17.85;61.10
73633;BME280;61927;50.080;14.418;2023-05-22T06:19:59;99328.97;;;17.89;61.25
73633;BME280;61927;50.080;14.418;2023-05-22T06:22:25;99327.84;;;17.92;60.89
73633;BME280;61927;50.080;14.418;2023-05-22T06:24:54;99331.09;;;17.95;60.76
73633;BME280;61927;50.080;14.418;2023-05-22T06:27:21;99324.28;;;18.01;60.58
73633;BME280;61927;50.080;14.418;2023-05-22T06:29:50;99320.88;;;18.08;60.24
73633;BME280;61927;50.080;14.418;2023-05-22T06:32:16;99323.97;;;18.14;60.39
73633;BME280;61927;50.080;14.418;2023-05-22T06:34:43;99316.88;;;18.22;60.01
73633;BME280;61927;50.080;14.418;2023-05-22T06:37:10;99323.94;;;18.23;60.19
73633;BME280;61927;50.080;14.418;2023-05-22T06:39:37;99313.88;;;18.35;59.73
73633;BME280;61927;50.080;14.418;2023-05-22T06:42:04;99321.19;;;18.43;59.46
73633;BME280;61927;50.080;14.418;2023-05-22T06:44:29;99318.19;;;18.46;59.33
73633;BME280;61927;50.080;14.418;2023-05-22T06:46:55;99313.94;;;18.53;58.80
73633;BME280;61927;50.080;14.418;2023-05-22T06:49:21;99312.06;;;18.63;58.65
73633;BME280;61927;50.080;14.418;2023-05-22T06:51:47;99309.88;;;18.76;58.42
73633;BME280;61927;50.080;14.418;2023-05-22T06:54:12;99309.97;;;18.84;57.75
73633;BME280;61927;50.080;14.418;2023-05-22T06:56:41;99316.13;;;18.94;57.71
73633;BME280;61927;50.080;14.418;2023-05-22T06:59:09;99311.84;;;19.01;57.57
73633;BME280;61927;50.080;14.418;2023-05-22T07:01:35;99319.06;;;19.01;57.71
73633;BME280;61927;50.080;14.418;2023-05-22T07:04:01;99316.22;;;19.02;57.25
73633;BME280;61927;50.080;14.418;2023-05-22T07:06:30;99321.84;;;19.09;57.58
73633;BME280;61927;50.080;14.418;2023-05-22T07:09:09;99322.63;;;19.19;57.07
73633;BME280;61927;50.080;14.418;2023-05-22T07:11:39;99321.84;;;19.27;56.70
73633;BME280;61927;50.080;14.418;2023-05-22T07:14:07;99319.25;;;19.35;56.88
73633;BME280;61927;50.080;14.418;2023-05-22T07:16:33;99318.25;;;19.36;57.06
73633;BME280;61927;50.080;14.418;2023-05-22T07:18:58;99317.94;;;19.39;56.58
73633;BME280;61927;50.080;14.418;2023-05-22T07:21:24;99316.84;;;19.50;56.83
73633;BME280;61927;50.080;14.418;2023-05-22T07:23:50;99311.56;;;19.58;56.35
73633;BME280;61927;50.080;14.418;2023-05-22T07:26:17;99313.50;;;19.65;56.18
73633;BME280;61927;50.080;14.418;2023-05-22T07:28:42;99311.19;;;19.71;55.89
73633;BME280;61927;50.080;14.418;2023-05-22T07:31:08;99301.09;;;19.73;56.03
73633;BME280;61927;50.080;14.418;2023-05-22T07:33:34;99297.78;;;19.79;55.70
73633;BME280;61927;50.080;14.418;2023-05-22T07:35:59;99304.59;;;19.91;55.67
73633;BME280;61927;50.080;14.418;2023-05-22T07:38:28;99297.41;;;19.99;55.07
73633;BME280;61927;50.080;14.418;2023-05-22T07:41:20;99299.63;;;20.04;55.06
73633;BME280;61927;50.080;14.418;2023-05-22T07:43:49;99300.16;;;20.08;54.76
73633;BME280;61927;50.080;14.418;2023-05-22T07:46:15;99301.53;;;20.12;54.97
73633;BME280;61927;50.080;14.418;2023-05-22T07:48:41;99296.50;;;20.17;54.84
73633;BME280;61927;50.080;14.418;2023-05-22T07:51:08;99294.03;;;20.23;54.70
73633;BME280;61927;50.080;14.418;2023-05-22T07:53:34;99300.47;;;20.30;54.27
73633;BME280;61927;50.080;14.418;2023-05-22T07:56:00;99297.44;;;20.33;54.22
73633;BME280;61927;50.080;14.418;2023-05-22T07:58:25;99288.88;;;20.38;54.25
73633;BME280;61927;50.080;14.418;2023-05-22T08:00:51;99288.59;;;20.41;54.00
73633;BME280;61927;50.080;14.418;2023-05-22T08:03:17;99281.88;;;20.45;53.42
73633;BME280;61927;50.080;14.418;2023-05-22T08:05:43;99291.00;;;20.52;53.26
73633;BME280;61927;50.080;14.418;2023-05-22T08:08:08;99290.88;;;20.62;53.20
73633;BME280;61927;50.080;14.418;2023-05-22T08:10:37;99287.03;;;20.73;53.28
73633;BME280;61927;50.080;14.418;2023-05-22T08:13:04;99293.78;;;20.77;52.99
73633;BME280;61927;50.080;14.418;2023-05-22T08:15:31;99289.44;;;20.84;53.73
73633;BME280;61927;50.080;14.418;2023-05-22T08:17:57;99284.72;;;20.86;53.88
73633;BME280;61927;50.080;14.418;2023-05-22T08:20:22;99282.72;;;20.96;53.98
73633;BME280;61927;50.080;14.418;2023-05-22T08:22:48;99282.06;;;21.10;53.91
73633;BME280;61927;50.080;14.418;2023-05-22T08:25:14;99283.13;;;21.25;53.28
73633;BME280;61927;50.080;14.418;2023-05-22T08:27:40;99279.94;;;21.30;52.96
73633;BME280;61927;50.080;14.418;2023-05-22T08:30:06;99277.56;;;21.35;52.76
73633;BME280;61927;50.080;14.418;2023-05-22T08:32:57;99278.25;;;21.37;53.11
73633;BME280;61927;50.080;14.418;2023-05-22T08:35:47;99271.34;;;21.43;52.58
73633;BME280;61927;50.080;14.418;2023-05-22T08:38:14;99286.19;;;21.55;52.14
73633;BME280;61927;50.080;14.418;2023-05-22T08:41:04;99286.69;;;21.58;52.84
73633;BME280;61927;50.080;14.418;2023-05-22T08:43:57;99275.38;;;21.63;52.56
73633;BME280;61927;50.080;14.418;2023-05-22T08:46:48;99271.66;;;21.72;52.57
73633;BME280;61927;50.080;14.418;2023-05-22T08:49:41;99265.25;;;21.73;52.22
73633;BME280;61927;50.080;14.418;2023-05-22T08:52:36;99263.38;;;21.82;52.14
73633;BME280;61927;50.080;14.418;2023-05-22T08:55:33;99266.91;;;21.90;51.62
73633;BME280;61927;50.080;14.418;2023-05-22T08:58:23;99257.28;;;21.96;51.70
73633;BME280;61927;50.080;14.418;2023-05-22T09:00:51;99252.38;;;22.00;51.71
73633;BME280;61927;50.080;14.418;2023-05-22T09:03:18;99259.31;;;22.02;51.53
73633;BME280;61927;50.080;14.418;2023-05-22T09:05:46;99260.31;;;22.09;51.38
73633;BME280;61927;50.080;14.418;2023-05-22T09:08:11;99254.41;;;22.14;51.33
73633;BME280;61927;50.080;14.418;2023-05-22T09:10:38;99249.97;;;22.21;51.16
73633;BME280;61927;50.080;14.418;2023-05-22T09:13:04;99243.22;;;22.25;50.66
73633;BME280;61927;50.080;14.418;2023-05-22T09:15:57;99254.03;;;22.25;50.97
73633;BME280;61927;50.080;14.418;2023-05-22T09:18:26;99245.56;;;22.28;50.63
73633;BME280;61927;50.080;14.418;2023-05-22T09:20:52;99245.19;;;22.39;50.30
73633;BME280;61927;50.080;14.418;2023-05-22T09:23:17;99241.78;;;22.45;49.91
73633;BME280;61927;50.080;14.418;2023-05-22T09:25:45;99238.19;;;22.53;49.98
73633;BME280;61927;50.080;14.418;2023-05-22T09:28:11;99237.31;;;22.61;49.82
73633;BME280;61927;50.080;14.418;2023-05-22T09:30:37;99245.56;;;22.67;48.76
73633;BME280;61927;50.080;14.418;2023-05-22T09:33:03;99245.88;;;22.72;48.85
73633;BME280;61927;50.080;14.418;2023-05-22T09:35:34;99240.09;;;22.75;48.60
73633;BME280;61927;50.080;14.418;2023-05-22T09:45:22;99235.13;;;22.95;48.29
73633;BME280;61927;50.080;14.418;2023-05-22T09:51:14;99240.00;;;23.00;47.66
73633;BME280;61927;50.080;14.418;2023-05-22T10:05:04;99235.47;;;23.38;46.65
73633;BME280;61927;50.080;14.418;2023-05-22T10:08:01;99230.53;;;23.41;47.03
73633;BME280;61927;50.080;14.418;2023-05-22T10:10:54;99224.03;;;23.50;46.04
73633;BME280;61927;50.080;14.418;2023-05-22T10:13:20;99225.06;;;23.49;44.86
73633;BME280;61927;50.080;14.418;2023-05-22T10:15:47;99217.09;;;23.48;45.22
73633;BME280;61927;50.080;14.418;2023-05-22T10:18:14;99214.88;;;23.51;45.98
73633;BME280;61927;50.080;14.418;2023-05-22T10:20:44;99215.00;;;23.58;45.76
73633;BME280;61927;50.080;14.418;2023-05-22T10:23:13;99214.00;;;23.59;45.51
73633;BME280;61927;50.080;14.418;2023-05-22T10:25:39;99207.28;;;23.70;45.32
73633;BME280;61927;50.080;14.418;2023-05-22T10:28:06;99204.97;;;23.81;45.01
73633;BME280;61927;50.080;14.418;2023-05-22T10:30:55;99204.69;;;23.91;44.36
73633;BME280;61927;50.080;14.418;2023-05-22T10:33:25;99204.31;;;23.94;44.25
73633;BME280;61927;50.080;14.418;2023-05-22T10:36:29;99200.03;;;24.00;43.31
73633;BME280;61927;50.080;14.418;2023-05-22T10:42:12;99187.50;;;23.99;42.27
73633;BME280;61927;50.080;14.418;2023-05-22T10:44:38;99183.66;;;24.08;42.51
73633;BME280;61927;50.080;14.418;2023-05-22T10:47:08;99179.34;;;24.13;42.16
73633;BME280;61927;50.080;14.418;2023-05-22T10:49:36;99171.78;;;24.24;41.87
73633;BME280;61927;50.080;14.418;2023-05-22T10:52:03;99176.75;;;24.35;42.59
73633;BME280;61927;50.080;14.418;2023-05-22T10:54:43;99166.78;;;24.57;41.61
73633;BME280;61927;50.080;14.418;2023-05-22T10:57:12;99170.03;;;24.67;39.24
73633;BME280;61927;50.080;14.418;2023-05-22T10:59:38;99167.38;;;24.73;39.27
73633;BME280;61927;50.080;14.418;2023-05-22T11:02:05;99163.06;;;24.79;39.60
73633;BME280;61927;50.080;14.418;2023-05-22T11:04:31;99157.50;;;24.87;40.28
73633;BME280;61927;50.080;14.418;2023-05-22T11:07:04;99158.81;;;24.91;38.66
73633;BME280;61927;50.080;14.418;2023-05-22T11:14:41;99153.47;;;25.19;37.25
73633;BME280;61927;50.080;14.418;2023-05-22T11:17:06;99147.56;;;25.16;37.28
73633;BME280;61927;50.080;14.418;2023-05-22T11:19:32;99148.91;;;25.26;37.55
73633;BME280;61927;50.080;14.418;2023-05-22T11:22:02;99152.97;;;25.37;37.67
73633;BME280;61927;50.080;14.418;2023-05-22T11:24:33;99149.06;;;25.46;37.03
73633;BME280;61927;50.080;14.418;2023-05-22T11:27:00;99140.13;;;25.52;37.12
73633;BME280;61927;50.080;14.418;2023-05-22T11:36:48;99139.88;;;25.47;38.18
73633;BME280;61927;50.080;14.418;2023-05-22T11:39:14;99144.34;;;25.55;38.21
73633;BME280;61927;50.080;14.418;2023-05-22T11:41:40;99133.91;;;25.58;37.90
73633;BME280;61927;50.080;14.418;2023-05-22T11:44:07;99141.03;;;25.59;38.13
73633;BME280;61927;50.080;14.418;2023-05-22T11:46:33;99133.66;;;25.53;38.30
73633;BME280;61927;50.080;14.418;2023-05-22T11:49:03;99127.78;;;25.50;39.13
73633;BME280;61927;50.080;14.418;2023-05-22T11:51:29;99129.41;;;25.44;38.89
73633;BME280;61927;50.080;14.418;2023-05-22T11:53:55;99128.34;;;25.38;39.04
73633;BME280;61927;50.080;14.418;2023-05-22T11:56:21;99126.75;;;25.23;39.10
73633;BME280;61927;50.080;14.418;2023-05-22T11:58:48;99125.25;;;25.20;39.40
73633;BME280;61927;50.080;14.418;2023-05-22T12:01:14;99124.88;;;25.23;39.41
73633;BME280;61927;50.080;14.418;2023-05-22T12:03:40;99134.66;;;25.18;39.55
73633;BME280;61927;50.080;14.418;2023-05-22T12:06:06;99128.56;;;25.16;39.51
73633;BME280;61927;50.080;14.418;2023-05-22T12:08:34;99127.47;;;25.10;39.55
73633;BME280;61927;50.080;14.418;2023-05-22T12:11:03;99127.88;;;25.07;39.62
73633;BME280;61927;50.080;14.418;2023-05-22T12:13:30;99125.22;;;25.14;39.22
73633;BME280;61927;50.080;14.418;2023-05-22T12:16:16;99125.97;;;25.29;39.23
73633;BME280;61927;50.080;14.418;2023-05-22T12:18:42;99113.41;;;25.28;38.81
73633;BME280;61927;50.080;14.418;2023-05-22T12:21:09;99121.75;;;25.26;39.20
73633;BME280;61927;50.080;14.418;2023-05-22T12:23:46;99113.13;;;25.44;38.67
73633;BME280;61927;50.080;14.418;2023-05-22T12:26:12;99104.97;;;25.44;38.96
73633;BME280;61927;50.080;14.418;2023-05-22T12:28:38;99109.91;;;25.62;38.61
73633;BME280;61927;50.080;14.418;2023-05-22T12:31:03;99105.22;;;25.77;37.84
73633;BME280;61927;50.080;14.418;2023-05-22T12:33:30;99105.91;;;25.92;37.21
73633;BME280;61927;50.080;14.418;2023-05-22T12:35:56;99102.00;;;26.08;36.82
73633;BME280;61927;50.080;14.418;2023-05-22T12:38:27;99108.13;;;26.23;36.25
73633;BME280;61927;50.080;14.418;2023-05-22T12:40:54;99100.22;;;26.28;36.58
73633;BME280;61927;50.080;14.418;2023-05-22T12:43:22;99099.22;;;26.36;35.85
73633;BME280;61927;50.080;14.418;2023-05-22T12:45:48;99103.81;;;26.35;36.08
73633;BME280;61927;50.080;14.418;2023-05-22T12:48:14;99104.03;;;26.34;36.13
73633;BME280;61927;50.080;14.418;2023-05-22T12:50:40;99097.34;;;26.36;36.84
73633;BME280;61927;50.080;14.418;2023-05-22T12:53:06;99097.13;;;26.38;36.04
73633;BME280;61927;50.080;14.418;2023-05-22T12:55:32;99099.22;;;26.43;36.51
73633;BME280;61927;50.080;14.418;2023-05-22T12:57:59;99095.69;;;26.42;36.42
73633;BME280;61927;50.080;14.418;2023-05-22T13:00:24;99099.66;;;26.39;35.54
73633;BME280;61927;50.080;14.418;2023-05-22T13:02:50;99091.91;;;26.43;35.13
73633;BME280;61927;50.080;14.418;2023-05-22T13:05:16;99088.78;;;26.46;35.31
73633;BME280;61927;50.080;14.418;2023-05-22T13:07:42;99086.50;;;26.50;35.39
73633;BME280;61927;50.080;14.418;2023-05-22T13:10:08;99086.28;;;26.51;35.76
73633;BME280;61927;50.080;14.418;2023-05-22T13:12:34;99080.84;;;26.58;35.82
73633;BME280;61927;50.080;14.418;2023-05-22T13:15:00;99078.34;;;26.63;35.75
73633;BME280;61927;50.080;14.418;2023-05-22T13:17:50;99072.06;;;26.69;35.37
73633;BME280;61927;50.080;14.418;2023-05-22T13:20:41;99073.13;;;26.68;35.62
73633;BME280;61927;50.080;14.418;2023-05-22T13:23:32;99078.97;;;26.58;36.00
73633;BME280;61927;50.080;14.418;2023-05-22T13:26:24;99082.50;;;26.46;35.66
73633;BME280;61927;50.080;14.418;2023-05-22T13:29:16;99070.06;;;26.30;36.29
73633;BME280;61927;50.080;14.418;2023-05-22T13:32:06;99074.44;;;26.18;36.25
73633;BME280;61927;50.080;14.418;2023-05-22T13:34:39;99069.03;;;26.24;36.76
73633;BME280;61927;50.080;14.418;2023-05-22T13:37:05;99073.00;;;26.28;36.59
73633;BME280;61927;50.080;14.418;2023-05-22T13:39:31;99064.44;;;26.31;36.56
73633;BME280;61927;50.080;14.418;2023-05-22T13:41:56;99063.59;;;26.31;36.09
73633;BME280;61927;50.080;14.418;2023-05-22T13:44:46;99062.97;;;26.29;36.48